Time;durP1;ratioP1;P1;durP2;ratioP2;P2;SDS_P1;SDS_P2;PMS_P1;PMS_P2;Temp;Humidity;BMP_temperature;BMP_pressure;BME280_temperature;BME280_humidity;BME280_pressure;Samples;Min_cycle;Max_cycle;Signal;HPM_P1;HPM_P2
2023/06/21 00:00:30;;;;;;;1.83;1.73;;;;;;;14.09;100.00;91235.78;5051712;28;20187;-69
2023/06/21 00:02:59;;;;;;;2.38;2.22;;;;;;;14.09;100.00;91248.38;5051649;28;20059;-69
2023/06/21 00:05:24;;;;;;;2.50;2.28;;;;;;;14.01;100.00;91244.63;5051640;28;20029;-70
2023/06/21 00:07:52;;;;;;;2.30;2.17;;;;;;;14.01;100.00;91249.97;5051831;28;20028;-70
2023/06/21 00:10:20;;;;;;;1.38;1.27;;;;;;;13.98;100.00;91249.81;5051560;28;20029;-70
2023/06/21 00:12:46;;;;;;;2.17;1.98;;;;;;;13.95;100.00;91258.50;5051341;28;20163;-70
2023/06/21 00:15:12;;;;;;;1.73;1.63;;;;;;;13.90;100.00;91256.78;5051430;28;20354;-70
2023/06/21 00:17:37;;;;;;;4.20;1.23;;;;;;;13.89;100.00;91254.44;5051493;28;20032;-70
2023/06/21 00:20:03;;;;;;;1.58;1.48;;;;;;;13.84;100.00;91255.38;5051356;28;20037;-70
2023/06/21 00:22:29;;;;;;;2.22;2.08;;;;;;;13.86;100.00;91247.03;5051266;28;20037;-69
2023/06/21 00:24:57;;;;;;;1.67;1.58;;;;;;;13.85;100.00;91253.50;5051619;28;20393;-70
2023/06/21 00:27:22;;;;;;;1.52;1.48;;;;;;;13.76;100.00;91248.19;5051370;28;20111;-69
2023/06/21 00:29:48;;;;;;;2.58;2.33;;;;;;;13.76;100.00;91246.28;5051218;28;20183;-69
2023/06/21 00:32:13;;;;;;;2.08;1.98;;;;;;;13.73;100.00;91243.47;5049869;28;20124;-70
2023/06/21 00:34:38;;;;;;;1.75;1.65;;;;;;;13.76;100.00;91234.81;5051242;28;20399;-70
2023/06/21 00:37:04;;;;;;;1.75;1.65;;;;;;;13.80;100.00;91230.38;5051247;28;20032;-70
2023/06/21 00:39:30;;;;;;;1.42;1.35;;;;;;;13.85;100.00;91232.88;5051256;28;20102;-70
2023/06/21 00:41:56;;;;;;;1.45;1.38;;;;;;;13.85;100.00;91240.91;5051037;28;20438;-70
2023/06/21 00:44:21;;;;;;;1.88;1.77;;;;;;;13.86;100.00;91239.00;5051089;28;20056;-70
2023/06/21 00:46:49;;;;;;;4.65;2.03;;;;;;;13.86;100.00;91234.44;5051087;28;20063;-70
2023/06/21 00:49:14;;;;;;;2.25;2.05;;;;;;;13.94;100.00;91243.56;5051054;28;20463;-69
2023/06/21 00:51:41;;;;;;;4.53;2.20;;;;;;;13.95;100.00;91237.88;5050802;28;20064;-70
2023/06/21 00:54:07;;;;;;;2.13;1.35;;;;;;;13.96;100.00;91231.44;5050758;28;20049;-70
2023/06/21 00:56:35;;;;;;;8.95;2.83;;;;;;;13.99;100.00;91233.47;5050804;28;20025;-70
2023/06/21 00:59:04;;;;;;;1.58;1.48;;;;;;;13.97;100.00;91229.53;5050902;28;20047;-70
2023/06/21 01:01:30;;;;;;;4.40;2.35;;;;;;;14.01;100.00;91247.28;5050872;28;20112;-70
2023/06/21 01:03:57;;;;;;;1.48;1.25;;;;;;;13.94;100.00;91230.97;5051178;28;20057;-70
2023/06/21 01:06:34;;;;;;;1.77;1.67;;;;;;;13.93;100.00;91226.72;5050907;28;20036;-70
2023/06/21 01:09:21;;;;;;;1.73;1.63;;;;;;;13.93;100.00;91228.63;5050868;28;20056;-70
2023/06/21 01:11:55;;;;;;;2.05;1.55;;;;;;;13.87;100.00;91225.31;5050682;28;20029;-71
2023/06/21 01:14:48;;;;;;;2.78;2.58;;;;;;;13.89;100.00;91233.84;5050817;28;20029;-70
2023/06/21 01:17:17;;;;;;;1.80;1.70;;;;;;;13.88;100.00;91236.78;5050785;28;20058;-70
2023/06/21 01:19:56;;;;;;;1.55;1.45;;;;;;;13.82;100.00;91230.84;5051044;28;20278;-70
2023/06/21 01:22:21;;;;;;;1.20;1.20;;;;;;;13.86;100.00;91231.78;5050704;28;20067;-69
2023/06/21 01:25:11;;;;;;;1.40;1.30;;;;;;;13.77;100.00;91231.03;5050580;28;20085;-69
2023/06/21 01:28:15;;;;;;;1.80;1.52;;;;;;;13.69;100.00;91234.50;5050594;28;20812;-69
2023/06/21 01:30:41;;;;;;;1.95;1.80;;;;;;;13.62;100.00;91226.22;5049375;28;20068;-70
2023/06/21 01:33:08;;;;;;;1.27;1.27;;;;;;;13.49;100.00;91214.59;5050496;28;20495;-70
2023/06/21 01:35:34;;;;;;;1.38;1.27;;;;;;;13.56;100.00;91225.56;5050552;28;20078;-70
2023/06/21 01:38:00;;;;;;;2.67;1.67;;;;;;;13.50;100.00;91234.88;5050601;28;20029;-70
2023/06/21 01:40:26;;;;;;;2.30;2.17;;;;;;;13.48;100.00;91224.50;5050550;28;20035;-69
2023/06/21 01:42:52;;;;;;;3.95;2.45;;;;;;;13.49;100.00;91220.72;5050644;28;20104;-69
2023/06/21 01:45:21;;;;;;;3.17;2.92;;;;;;;13.47;100.00;91222.94;5049137;28;20040;-70
2023/06/21 01:47:48;;;;;;;1.48;1.38;;;;;;;13.40;100.00;91229.84;5050447;28;20025;-70
2023/06/21 01:50:15;;;;;;;1.73;1.63;;;;;;;13.35;100.00;91225.47;5050452;28;20036;-70
2023/06/21 01:52:41;;;;;;;1.33;1.30;;;;;;;13.45;100.00;91227.03;5050281;28;20508;-70
2023/06/21 01:55:08;;;;;;;3.55;2.30;;;;;;;13.49;100.00;91225.28;5050335;28;20076;-69
2023/06/21 01:57:37;;;;;;;1.65;1.55;;;;;;;13.60;100.00;91220.41;5050337;28;20033;-70
2023/06/21 02:00:16;;;;;;;1.63;1.52;;;;;;;13.64;100.00;91232.00;5050331;28;20396;-70
2023/06/21 02:03:06;;;;;;;1.63;1.52;;;;;;;13.71;100.00;91221.59;5051868;28;20055;-70
2023/06/21 02:05:33;;;;;;;1.88;1.77;;;;;;;13.76;100.00;91235.59;5051025;28;20098;-70
2023/06/21 02:08:00;;;;;;;1.73;1.63;;;;;;;13.81;100.00;91228.50;5053926;28;20024;-70
2023/06/21 02:10:26;;;;;;;1.95;1.85;;;;;;;13.70;100.00;91220.81;5053850;28;20553;-69
2023/06/21 02:12:54;;;;;;;1.40;1.40;;;;;;;13.58;100.00;91236.75;5054024;28;20072;-69
2023/06/21 02:15:20;;;;;;;1.50;1.50;;;;;;;13.49;100.00;91244.78;5053655;28;20040;-70
2023/06/21 02:17:50;;;;;;;2.28;2.08;;;;;;;13.49;100.00;91247.47;5052348;28;20033;-70
2023/06/21 02:20:21;;;;;;;1.58;1.55;;;;;;;13.37;100.00;91243.88;5053832;28;20040;-70
2023/06/21 02:22:47;;;;;;;1.67;1.58;;;;;;;13.36;100.00;91242.28;5053527;28;20040;-69
2023/06/21 02:25:15;;;;;;;2.28;2.17;;;;;;;13.30;100.00;91244.34;5053454;28;20086;-70
2023/06/21 02:27:40;;;;;;;4.47;2.05;;;;;;;13.23;100.00;91243.25;5053424;28;20036;-70
2023/06/21 02:30:07;;;;;;;4.38;3.00;;;;;;;13.21;100.00;91248.91;5053423;28;20029;-69
2023/06/21 02:32:33;;;;;;;6.57;4.30;;;;;;;13.21;100.00;91251.59;5053540;28;20215;-68
2023/06/21 02:34:59;;;;;;;1.90;1.77;;;;;;;13.16;100.00;91255.19;5053501;28;20091;-68
2023/06/21 02:37:27;;;;;;;4.40;1.85;;;;;;;13.08;100.00;91247.16;5053232;28;20495;-69
2023/06/21 02:39:54;;;;;;;2.80;1.30;;;;;;;13.10;100.00;91251.13;5053207;28;20126;-70
2023/06/21 02:42:19;;;;;;;1.38;1.27;;;;;;;13.10;100.00;91253.78;5053176;28;20181;-70
2023/06/21 02:44:44;;;;;;;3.03;2.83;;;;;;;13.07;100.00;91253.59;5053173;28;20495;-70
2023/06/21 02:47:10;;;;;;;2.13;2.03;;;;;;;13.02;100.00;91259.13;5053115;28;20207;-70
2023/06/21 02:49:36;;;;;;;2.28;1.42;;;;;;;12.96;100.00;91258.50;5053052;28;20032;-70
2023/06/21 02:52:06;;;;;;;3.80;1.48;;;;;;;12.96;100.00;91261.16;5052867;28;20029;-69
2023/06/21 02:54:32;;;;;;;1.63;1.52;;;;;;;13.01;100.00;91262.88;5052737;28;20056;-69
2023/06/21 02:56:57;;;;;;;3.40;1.95;;;;;;;13.05;100.00;91263.81;5053008;28;20495;-69
2023/06/21 02:59:23;;;;;;;1.23;1.23;;;;;;;13.01;100.00;91263.66;5052946;28;20044;-69
2023/06/21 03:01:49;;;;;;;2.05;1.63;;;;;;;13.01;100.00;91269.00;5052932;28;20025;-70
2023/06/21 03:04:18;;;;;;;1.95;1.85;;;;;;;13.04;100.00;91272.94;5052825;28;20025;-69
2023/06/21 03:06:45;;;;;;;2.28;2.17;;;;;;;13.07;100.00;91269.63;5052832;28;20124;-70
2023/06/21 03:09:10;;;;;;;2.45;2.08;;;;;;;13.07;100.00;91275.75;5051908;28;20025;-70
2023/06/21 03:11:36;;;;;;;2.28;2.08;;;;;;;13.06;100.00;91276.06;5052458;28;20036;-69
2023/06/21 03:14:01;;;;;;;1.05;1.05;;;;;;;13.05;100.00;91269.94;5052582;28;20021;-69
2023/06/21 03:16:26;;;;;;;1.10;1.10;;;;;;;13.03;100.00;91282.84;5052731;28;20024;-69
2023/06/21 03:18:52;;;;;;;3.42;2.22;;;;;;;13.10;100.00;91282.38;5052610;28;20486;-69
2023/06/21 03:21:17;;;;;;;1.58;1.48;;;;;;;13.15;100.00;91279.53;5052444;28;20082;-69
2023/06/21 03:23:43;;;;;;;1.63;1.58;;;;;;;13.25;100.00;91281.91;5051817;28;20040;-70
2023/06/21 03:26:09;;;;;;;2.25;1.48;;;;;;;13.33;100.00;91281.13;5052345;28;20033;-70
2023/06/21 03:28:34;;;;;;;2.80;2.45;;;;;;;13.32;100.00;91279.56;5052233;28;20455;-70
2023/06/21 03:31:00;;;;;;;1.77;1.67;;;;;;;13.46;100.00;91284.72;5052261;28;20039;-71
2023/06/21 03:33:25;;;;;;;1.10;1.10;;;;;;;13.51;100.00;91292.56;5051388;28;20029;-70
2023/06/21 03:35:51;;;;;;;1.38;1.27;;;;;;;13.49;100.00;91290.22;5050374;28;20025;-68
2023/06/21 03:38:17;;;;;;;2.45;2.25;;;;;;;13.54;100.00;91291.16;5052044;28;20509;-69
2023/06/21 03:40:43;;;;;;;4.30;2.10;;;;;;;13.58;100.00;91287.56;5052075;28;20021;-68
2023/06/21 03:43:09;;;;;;;1.20;1.10;;;;;;;13.59;100.00;91286.44;5052016;28;20025;-74
2023/06/21 03:45:34;;;;;;;2.40;1.67;;;;;;;13.66;100.00;91296.63;5051975;28;20029;-72
2023/06/21 03:48:03;;;;;;;2.13;1.92;;;;;;;13.70;100.00;91286.88;5044352;28;20041;-67
2023/06/21 03:50:29;;;;;;;2.03;1.92;;;;;;;13.66;100.00;91284.06;5029088;28;20034;-66
2023/06/21 03:52:55;;;;;;;1.50;1.40;;;;;;;13.79;100.00;91301.81;5029789;28;20036;-65
2023/06/21 03:55:24;;;;;;;2.50;2.30;;;;;;;13.82;100.00;91291.56;5031159;28;20046;-65
2023/06/21 03:57:53;;;;;;;2.83;2.22;;;;;;;13.89;100.00;91303.38;5031958;28;20033;-65
2023/06/21 04:00:21;;;;;;;2.22;1.63;;;;;;;13.94;100.00;91295.16;5030767;28;20096;-65
2023/06/21 04:02:46;;;;;;;2.20;2.00;;;;;;;14.00;100.00;91280.50;5031611;28;20375;-65
2023/06/21 04:05:12;;;;;;;2.08;1.98;;;;;;;14.12;100.00;91295.88;5031601;28;20104;-67
2023/06/21 04:07:38;;;;;;;1.60;1.50;;;;;;;14.11;100.00;91283.63;5030361;28;20496;-68
2023/06/21 04:10:04;;;;;;;2.25;2.13;;;;;;;14.27;100.00;91292.69;5031045;28;20072;-68
2023/06/21 04:12:31;;;;;;;1.40;1.30;;;;;;;14.36;100.00;91280.06;5031286;28;20565;-68
2023/06/21 04:14:57;;;;;;;1.45;1.35;;;;;;;14.23;100.00;91270.34;5031291;28;20025;-75
2023/06/21 04:17:23;;;;;;;1.63;1.52;;;;;;;14.47;100.00;91285.84;5030272;28;20490;-68
2023/06/21 04:19:48;;;;;;;1.83;1.40;;;;;;;14.60;100.00;91286.72;5031277;28;20061;-68
2023/06/21 04:22:14;;;;;;;2.17;1.98;;;;;;;14.72;100.00;91291.38;5031103;28;20120;-68
2023/06/21 04:24:40;;;;;;;3.70;2.92;;;;;;;14.84;100.00;91283.44;5030362;28;20053;-68
2023/06/21 04:27:06;;;;;;;2.30;2.10;;;;;;;14.96;100.00;91286.94;5031060;28;20032;-68
2023/06/21 04:29:40;;;;;;;1.50;1.40;;;;;;;15.14;100.00;91287.59;5031124;28;20087;-68
2023/06/21 04:32:06;;;;;;;1.92;1.73;;;;;;;15.31;100.00;91302.00;5029674;28;20026;-69
2023/06/21 04:34:33;;;;;;;1.95;1.75;;;;;;;15.40;100.00;91294.66;5029870;28;20022;-68
2023/06/21 04:36:59;;;;;;;1.38;1.27;;;;;;;15.22;100.00;91305.53;5031218;28;20033;-67
2023/06/21 04:39:37;;;;;;;3.63;1.55;;;;;;;15.38;100.00;91303.03;5029917;28;20036;-74
2023/06/21 04:42:02;;;;;;;2.00;1.83;;;;;;;15.47;100.00;91295.72;5030113;28;20033;-68
2023/06/21 04:44:28;;;;;;;1.45;1.35;;;;;;;15.55;100.00;91277.97;5029599;28;20032;-70
2023/06/21 04:47:00;;;;;;;1.88;1.73;;;;;;;15.80;100.00;91298.44;5030884;28;20044;-66
2023/06/21 04:49:26;;;;;;;3.25;2.22;;;;;;;15.98;100.00;91309.00;5030884;28;20407;-67
2023/06/21 04:51:53;;;;;;;8.07;3.08;;;;;;;16.20;100.00;91321.22;5030750;28;20029;-70
2023/06/21 04:54:22;;;;;;;1.35;1.27;;;;;;;16.16;100.00;91310.38;5029299;28;20534;-67
2023/06/21 04:56:51;;;;;;;1.80;1.70;;;;;;;16.33;100.00;91320.13;5030727;28;20384;-68
2023/06/21 04:59:18;;;;;;;2.70;1.90;;;;;;;16.46;100.00;91311.75;5030977;28;20029;-65
2023/06/21 05:01:44;;;;;;;1.67;1.58;;;;;;;16.64;100.00;91317.69;5029202;28;20040;-66
2023/06/21 05:04:09;;;;;;;2.70;2.45;;;;;;;16.66;100.00;91303.94;5029451;28;20108;-67
2023/06/21 05:06:35;;;;;;;2.08;1.98;;;;;;;16.84;100.00;91302.59;5030616;28;20108;-67
2023/06/21 05:09:01;;;;;;;2.15;2.05;;;;;;;16.92;100.00;91295.56;5030875;28;20037;-68
2023/06/21 05:11:28;;;;;;;1.02;1.02;;;;;;;17.11;100.00;91292.28;5028898;28;20573;-69
2023/06/21 05:13:54;;;;;;;1.33;1.33;;;;;;;17.30;100.00;91298.63;5045958;28;20451;-69
2023/06/21 05:16:19;;;;;;;1.48;1.38;;;;;;;17.36;100.00;91312.63;5030775;28;20025;-68
2023/06/21 05:18:45;;;;;;;4.43;3.70;;;;;;;17.46;100.00;91298.69;5030626;28;20517;-68
2023/06/21 05:21:11;;;;;;;1.73;1.63;;;;;;;17.74;100.00;91311.41;5030433;28;20117;-69
2023/06/21 05:23:36;;;;;;;1.98;1.83;;;;;;;17.98;100.00;91295.13;5030571;28;20498;-67
2023/06/21 05:26:02;;;;;;;2.38;1.85;;;;;;;18.04;100.00;91309.94;5030070;28;20033;-65
2023/06/21 05:28:27;;;;;;;1.10;1.00;;;;;;;18.29;100.00;91309.78;5029046;28;20033;-66
2023/06/21 05:30:53;;;;;;;2.53;2.33;;;;;;;18.50;100.00;91302.25;5030082;28;20034;-67
2023/06/21 05:33:18;;;;;;;3.65;2.10;;;;;;;18.79;100.00;91299.16;5030308;28;20039;-65
2023/06/21 05:35:43;;;;;;;1.30;1.30;;;;;;;19.03;100.00;91308.16;5028920;28;20017;-64
2023/06/21 05:38:09;;;;;;;1.48;1.38;;;;;;;19.23;100.00;91312.44;5033045;28;20029;-64
2023/06/21 05:40:34;;;;;;;1.55;1.45;;;;;;;19.59;100.00;91318.66;5032455;28;20125;-65
2023/06/21 05:43:04;;;;;;;2.22;2.03;;;;;;;19.85;100.00;91308.00;5034270;28;20120;-67
2023/06/21 05:45:29;;;;;;;1.60;1.50;;;;;;;20.03;100.00;91309.13;5034342;28;20033;-65
2023/06/21 05:47:57;;;;;;;1.85;1.45;;;;;;;20.32;100.00;91304.25;5034293;28;20029;-66
2023/06/21 05:50:22;;;;;;;1.10;1.10;;;;;;;21.16;100.00;91290.63;5034034;28;20495;-71
2023/06/21 05:52:48;;;;;;;1.55;1.45;;;;;;;24.31;99.47;91290.47;5034147;28;20091;-66
2023/06/21 05:55:13;;;;;;;2.15;1.42;;;;;;;27.15;73.16;91296.56;5033500;28;20503;-66
2023/06/21 05:57:38;;;;;;;2.80;1.73;;;;;;;29.72;53.17;91294.25;5033754;28;20435;-67
2023/06/21 06:00:08;;;;;;;2.05;1.65;;;;;;;30.32;47.88;91297.88;5034132;28;20069;-67
2023/06/21 06:02:34;;;;;;;1.40;1.30;;;;;;;30.52;46.97;91287.66;5033862;28;20034;-70
2023/06/21 06:04:59;;;;;;;1.70;1.60;;;;;;;33.17;42.90;91290.91;5032728;28;20051;-72
2023/06/21 06:07:25;;;;;;;1.90;1.80;;;;;;;35.05;39.51;91286.56;5033832;28;20534;-70
2023/06/21 06:09:50;;;;;;;1.83;1.73;;;;;;;36.08;37.34;91278.94;5033255;28;20021;-67
2023/06/21 06:12:17;;;;;;;1.83;1.63;;;;;;;37.39;35.49;91278.69;5033868;28;20034;-67
2023/06/21 06:14:43;;;;;;;4.75;1.98;;;;;;;38.04;34.22;91281.97;5032483;28;20124;-66
2023/06/21 06:17:08;;;;;;;2.15;1.60;;;;;;;39.96;32.37;91280.22;5033534;28;20151;-65
2023/06/21 06:19:34;;;;;;;1.90;1.80;;;;;;;39.19;32.23;91278.47;5033612;28;20033;-66
2023/06/21 06:21:59;;;;;;;1.48;1.38;;;;;;;39.35;31.48;91285.56;5033479;28;20033;-66
2023/06/21 06:24:25;;;;;;;1.50;1.40;;;;;;;40.73;30.57;91280.97;5033474;28;20061;-65
2023/06/21 06:26:50;;;;;;;3.60;1.77;;;;;;;41.80;29.49;91277.94;5034378;28;20411;-67
2023/06/21 06:29:16;;;;;;;5.68;4.65;;;;;;;42.30;29.63;91288.72;5034138;28;20498;-67
2023/06/21 06:31:41;;;;;;;2.53;1.60;;;;;;;42.15;30.19;91281.28;5034494;28;20025;-67
2023/06/21 06:34:07;;;;;;;2.97;2.30;;;;;;;42.05;29.46;91284.72;5034368;28;20029;-67
2023/06/21 06:36:32;;;;;;;1.77;1.50;;;;;;;42.43;30.24;91284.19;5034079;28;20116;-68
2023/06/21 06:39:18;;;;;;;1.65;1.55;;;;;;;41.53;29.89;91279.25;5033653;28;20108;-72
2023/06/21 06:41:44;;;;;;;3.20;2.38;;;;;;;39.10;31.41;91275.75;5032971;28;20033;-73
2023/06/21 06:44:09;;;;;;;2.58;1.60;;;;;;;39.93;31.65;91272.81;5032855;28;20033;-68
2023/06/21 06:46:35;;;;;;;2.97;2.13;;;;;;;41.82;30.02;91279.00;5032860;28;20026;-67
2023/06/21 06:49:00;;;;;;;1.85;1.65;;;;;;;41.77;29.94;91279.69;5033568;28;20103;-66
2023/06/21 06:51:26;;;;;;;8.30;3.70;;;;;;;37.67;34.06;91273.03;5033955;28;20121;-67
2023/06/21 06:53:51;;;;;;;3.60;1.95;;;;;;;37.29;35.05;91262.56;5033097;28;20141;-67
2023/06/21 06:56:17;;;;;;;2.60;2.00;;;;;;;39.50;33.20;91252.88;5033608;28;20061;-67
2023/06/21 06:58:42;;;;;;;2.13;1.95;;;;;;;40.77;31.58;91271.13;5033607;28;20108;-67
2023/06/21 07:01:08;;;;;;;1.63;1.52;;;;;;;40.30;31.73;91261.16;5033355;28;20034;-68
2023/06/21 07:03:34;;;;;;;2.83;2.55;;;;;;;41.40;30.72;91253.75;5033777;28;20108;-68
2023/06/21 07:05:59;;;;;;;3.17;2.65;;;;;;;41.37;30.28;91254.75;5032805;28;20044;-71
2023/06/21 07:08:25;;;;;;;3.03;1.95;;;;;;;41.91;30.00;91252.88;5033147;28;20026;-71
2023/06/21 07:10:51;;;;;;;2.83;2.22;;;;;;;41.60;30.22;91273.19;5033458;28;20030;-69
2023/06/21 07:13:17;;;;;;;2.17;1.85;;;;;;;42.43;29.75;91270.19;5033301;28;20029;-68
2023/06/21 07:15:43;;;;;;;2.13;1.85;;;;;;;43.54;28.77;91274.63;5033222;28;20030;-67
2023/06/21 07:18:09;;;;;;;7.70;3.63;;;;;;;43.68;28.62;91280.47;5033527;28;20025;-66
2023/06/21 07:20:35;;;;;;;2.20;1.80;;;;;;;41.09;29.57;91266.38;5033343;28;20036;-66
2023/06/21 07:23:00;;;;;;;3.30;2.25;;;;;;;42.71;29.07;91277.97;5032573;28;20021;-66
2023/06/21 07:25:26;;;;;;;2.63;2.00;;;;;;;39.88;30.67;91276.25;5032942;28;20425;-67
2023/06/21 07:27:51;;;;;;;3.58;2.00;;;;;;;40.09;31.36;91263.16;5031507;28;20039;-68
2023/06/21 07:30:18;;;;;;;2.15;1.52;;;;;;;39.78;30.46;91269.28;5033444;28;20063;-75
2023/06/21 07:32:43;;;;;;;2.15;1.90;;;;;;;41.71;29.21;91259.34;5031922;28;20032;-71
2023/06/21 07:35:09;;;;;;;5.38;1.85;;;;;;;41.91;29.30;91254.91;5032841;28;20037;-72
2023/06/21 07:37:34;;;;;;;1.63;1.52;;;;;;;43.16;28.09;91272.53;5031701;28;20415;-69
2023/06/21 07:40:00;;;;;;;2.83;1.40;;;;;;;42.50;28.03;91260.59;5032416;28;20033;-66
2023/06/21 07:42:26;;;;;;;1.52;1.42;;;;;;;44.31;27.99;91268.72;5032621;28;20064;-66
2023/06/21 07:44:53;;;;;;;1.88;1.77;;;;;;;45.05;26.08;91279.97;5032943;28;20033;-66
2023/06/21 07:47:19;;;;;;;2.92;2.08;;;;;;;41.61;26.74;91271.94;5032858;28;20065;-66
2023/06/21 07:49:44;;;;;;;2.25;1.67;;;;;;;43.27;27.03;91266.94;5032483;28;20065;-67
2023/06/21 07:52:10;;;;;;;1.77;1.65;;;;;;;40.62;27.62;91259.28;5032547;28;20427;-67
2023/06/21 07:54:37;;;;;;;1.90;1.75;;;;;;;40.69;27.29;91259.59;5031731;28;20496;-69
2023/06/21 07:57:02;;;;;;;1.92;1.83;;;;;;;38.84;28.98;91264.41;5032346;28;20030;-69
2023/06/21 07:59:28;;;;;;;2.63;2.17;;;;;;;40.06;28.38;91262.09;5032055;28;20041;-69
2023/06/21 08:01:53;;;;;;;2.30;1.83;;;;;;;41.79;27.72;91263.19;5032399;28;20018;-70
2023/06/21 08:04:19;;;;;;;1.98;1.80;;;;;;;40.93;26.71;91255.84;5032709;28;20029;-69
2023/06/21 08:06:44;;;;;;;4.20;1.83;;;;;;;41.28;27.72;91259.22;5032174;28;20025;-67
2023/06/21 08:09:14;;;;;;;1.75;1.65;;;;;;;41.99;27.28;91248.34;5031912;28;20033;-71
